createdAt,value
2018-06-19T00:00:15.803Z,18.30
2018-06-19T00:02:49.801Z,18.30
2018-06-19T00:05:28.310Z,18.30
2018-06-19T00:08:02.541Z,18.30
2018-06-19T00:10:36.737Z,18.30
2018-06-19T00:13:10.546Z,18.20
2018-06-19T00:15:44.609Z,18.20
2018-06-19T00:18:22.365Z,18.20
2018-06-19T00:20:59.938Z,18.20
2018-06-19T00:23:33.645Z,18.10
2018-06-19T00:26:07.751Z,18.10
2018-06-19T00:28:44.004Z,18.10
2018-06-19T00:31:17.958Z,18.00
2018-06-19T00:33:51.940Z,18.00
2018-06-19T00:36:26.574Z,18.00
2018-06-19T00:39:00.563Z,17.90
2018-06-19T00:41:34.894Z,17.90
2018-06-19T00:44:09.880Z,17.90
2018-06-19T00:46:46.578Z,17.80
2018-06-19T00:49:20.552Z,17.60
2018-06-19T00:51:55.715Z,17.50
2018-06-19T00:54:29.927Z,17.30
2018-06-19T00:57:04.009Z,17.30
2018-06-19T00:59:38.081Z,17.20
2018-06-19T01:02:12.428Z,17.10
2018-06-19T01:04:46.315Z,17.00
2018-06-19T01:07:20.560Z,17.00
2018-06-19T01:09:54.295Z,17.00
2018-06-19T01:12:28.871Z,16.90
2018-06-19T01:15:02.936Z,16.70
2018-06-19T01:17:37.201Z,16.70
2018-06-19T01:20:11.348Z,16.60
2018-06-19T01:22:45.294Z,16.50
2018-06-19T01:25:19.343Z,16.50
2018-06-19T01:27:53.230Z,16.40
2018-06-19T01:30:27.167Z,16.40
2018-06-19T01:33:01.394Z,16.30
2018-06-19T01:35:35.232Z,16.30
2018-06-19T01:38:09.129Z,16.30
2018-06-19T01:40:43.614Z,16.20
2018-06-19T01:43:17.644Z,16.20
2018-06-19T01:45:51.311Z,16.10
2018-06-19T01:48:25.272Z,16.10
2018-06-19T01:50:59.410Z,16.00
2018-06-19T01:53:33.534Z,15.90
2018-06-19T01:56:07.368Z,15.90
2018-06-19T01:58:41.246Z,15.90
2018-06-19T02:01:15.366Z,16.00
2018-06-19T02:03:49.411Z,16.00
2018-06-19T02:06:23.169Z,16.00
2018-06-19T02:08:57.322Z,15.90
2018-06-19T02:11:31.142Z,15.80
2018-06-19T02:14:05.142Z,15.80
2018-06-19T02:16:39.031Z,15.90
2018-06-19T02:19:13.161Z,15.90
2018-06-19T02:21:47.009Z,16.00
2018-06-19T02:24:20.911Z,15.90
2018-06-19T02:26:54.886Z,16.00
2018-06-19T02:29:28.699Z,16.10
2018-06-19T02:32:02.524Z,16.10
2018-06-19T02:34:36.737Z,16.10
2018-06-19T02:37:10.734Z,16.20
2018-06-19T02:39:44.889Z,16.20
2018-06-19T02:42:19.348Z,16.20
2018-06-19T02:44:53.459Z,16.20
2018-06-19T02:47:27.277Z,16.30
2018-06-19T02:50:01.054Z,16.20
2018-06-19T02:52:35.278Z,16.20
2018-06-19T02:55:09.228Z,16.20
2018-06-19T02:57:43.302Z,16.10
2018-06-19T03:00:17.253Z,16.00
2018-06-19T03:02:51.081Z,16.00
2018-06-19T03:05:25.124Z,16.10
2018-06-19T03:07:58.981Z,16.10
2018-06-19T03:10:32.745Z,16.10
2018-06-19T03:13:06.664Z,16.10
2018-06-19T03:18:14.480Z,16.10
2018-06-19T03:23:22.185Z,16.20
2018-06-19T03:25:56.363Z,16.20
2018-06-19T03:28:30.421Z,16.20
2018-06-19T03:31:04.665Z,16.20
2018-06-19T03:33:39.125Z,16.20
2018-06-19T03:36:13.178Z,16.20
2018-06-19T03:38:46.940Z,16.20
2018-06-19T03:41:20.990Z,16.30
2018-06-19T03:43:55.125Z,16.30
2018-06-19T03:46:29.217Z,16.30
2018-06-19T03:49:03.768Z,16.30
2018-06-19T03:51:37.645Z,16.30
2018-06-19T03:54:12.134Z,16.30
2018-06-19T03:56:46.209Z,16.30
2018-06-19T03:59:20.251Z,16.30
2018-06-19T04:01:54.741Z,16.30
2018-06-19T04:04:29.044Z,16.40
2018-06-19T04:07:02.906Z,16.40
2018-06-19T04:09:37.214Z,16.40
2018-06-19T04:12:11.245Z,16.40
2018-06-19T04:14:49.071Z,16.40
2018-06-19T04:17:25.863Z,16.40
2018-06-19T04:19:59.849Z,16.40
2018-06-19T04:22:34.066Z,16.40
2018-06-19T04:25:07.939Z,16.40
2018-06-19T04:27:42.361Z,16.40
2018-06-19T04:30:16.273Z,16.40
2018-06-19T04:32:50.691Z,16.40
2018-06-19T04:35:24.895Z,16.40
2018-06-19T04:37:58.846Z,16.50
2018-06-19T04:40:32.815Z,16.50
2018-06-19T04:43:06.756Z,16.50
2018-06-19T04:45:40.784Z,16.50
2018-06-19T04:48:15.213Z,16.50
2018-06-19T04:50:49.151Z,16.60
2018-06-19T04:53:23.134Z,16.60
2018-06-19T04:55:57.499Z,16.70
2018-06-19T04:58:31.423Z,16.80
2018-06-19T05:01:05.399Z,16.80
2018-06-19T05:03:39.466Z,16.80
2018-06-19T05:06:13.410Z,16.90
2018-06-19T05:08:47.694Z,16.90
2018-06-19T05:11:21.590Z,16.90
2018-06-19T05:13:55.646Z,17.00
2018-06-19T05:16:29.816Z,17.00
2018-06-19T05:19:04.150Z,17.10
2018-06-19T05:21:38.238Z,17.10
2018-06-19T05:24:12.144Z,17.10
2018-06-19T05:26:46.374Z,17.10
2018-06-19T05:29:20.603Z,17.20
2018-06-19T05:31:55.054Z,17.20
2018-06-19T05:34:29.184Z,17.20
2018-06-19T05:37:03.102Z,17.20
2018-06-19T05:39:37.023Z,17.30
2018-06-19T05:42:10.976Z,17.30
2018-06-19T05:44:45.143Z,17.30
2018-06-19T05:47:20.115Z,17.30
2018-06-19T05:49:54.035Z,17.20
2018-06-19T05:52:28.124Z,17.20
2018-06-19T05:55:02.028Z,17.20
2018-06-19T05:57:36.271Z,17.20
2018-06-19T06:00:10.303Z,17.20
2018-06-19T06:02:44.488Z,17.20
2018-06-19T06:05:18.935Z,17.30
2018-06-19T06:10:27.165Z,17.30
2018-06-19T06:13:01.436Z,17.40
2018-06-19T06:15:35.310Z,17.40
2018-06-19T06:18:09.335Z,17.40
2018-06-19T06:23:17.664Z,17.50
2018-06-19T06:25:52.025Z,17.50
2018-06-19T06:28:25.994Z,17.60
2018-06-19T06:30:59.954Z,17.60
2018-06-19T06:33:34.760Z,17.60
2018-06-19T06:36:08.850Z,17.70
2018-06-19T06:38:43.144Z,17.70
2018-06-19T06:41:17.202Z,17.80
2018-06-19T06:43:51.609Z,17.80
2018-06-19T06:46:25.446Z,17.80
2018-06-19T06:48:59.446Z,17.90
2018-06-19T06:51:33.468Z,17.90
2018-06-19T06:54:07.881Z,17.90
2018-06-19T06:56:42.027Z,17.90
2018-06-19T06:59:16.342Z,17.80
2018-06-19T07:01:50.252Z,17.90
2018-06-19T07:04:24.631Z,17.90
2018-06-19T07:06:58.585Z,17.90
2018-06-19T07:09:32.651Z,18.00
2018-06-19T07:12:06.496Z,18.00
2018-06-19T07:14:40.559Z,18.00
2018-06-19T07:17:14.676Z,18.10
2018-06-19T07:19:48.831Z,18.10
2018-06-19T07:22:22.843Z,18.10
2018-06-19T07:24:56.924Z,18.10
2018-06-19T07:27:30.918Z,18.10
2018-06-19T07:30:04.968Z,18.10
2018-06-19T07:32:39.072Z,18.10
2018-06-19T07:35:13.620Z,18.00
2018-06-19T07:37:47.855Z,18.10
2018-06-19T07:40:21.910Z,18.10
2018-06-19T07:43:00.406Z,18.10
2018-06-19T07:45:34.661Z,18.10
2018-06-19T07:48:08.889Z,18.10
2018-06-19T07:50:43.122Z,18.10
2018-06-19T07:53:17.209Z,18.10
2018-06-19T07:55:51.150Z,18.10
2018-06-19T07:58:25.264Z,18.10
2018-06-19T08:00:59.216Z,18.00
2018-06-19T08:03:33.371Z,18.00
2018-06-19T08:06:07.154Z,18.00
2018-06-19T08:08:41.409Z,18.00
2018-06-19T08:11:15.324Z,18.00
2018-06-19T08:13:49.291Z,18.00
2018-06-19T08:16:23.307Z,17.90
2018-06-19T08:18:57.531Z,17.90
2018-06-19T08:21:31.524Z,17.90
2018-06-19T08:24:05.394Z,17.90
2018-06-19T08:26:39.299Z,17.90
2018-06-19T08:29:13.304Z,17.80
2018-06-19T08:31:47.352Z,17.80
2018-06-19T08:34:21.251Z,17.70
2018-06-19T08:36:55.279Z,17.70
2018-06-19T08:39:29.441Z,17.60
2018-06-19T08:42:03.595Z,17.60
2018-06-19T08:44:37.681Z,17.60
2018-06-19T08:47:11.749Z,17.50
2018-06-19T08:49:45.504Z,17.50
2018-06-19T08:52:19.439Z,17.50
2018-06-19T08:54:53.390Z,17.50
2018-06-19T08:57:27.206Z,17.50
2018-06-19T09:00:01.605Z,17.50
2018-06-19T09:02:35.473Z,17.60
2018-06-19T09:05:09.260Z,17.60
2018-06-19T09:07:43.917Z,17.60
2018-06-19T09:10:17.868Z,17.50
2018-06-19T09:12:51.889Z,17.60
2018-06-19T09:15:25.986Z,17.60
2018-06-19T09:18:00.666Z,17.60
2018-06-19T09:20:34.887Z,17.60
2018-06-19T09:23:09.215Z,17.70
2018-06-19T09:25:43.462Z,17.70
2018-06-19T09:28:17.624Z,17.70
2018-06-19T09:30:51.408Z,17.80
2018-06-19T09:33:26.106Z,17.80
2018-06-19T09:36:00.294Z,17.80
2018-06-19T09:38:34.365Z,17.90
2018-06-19T09:41:08.856Z,17.90
2018-06-19T09:43:42.980Z,18.10
2018-06-19T09:46:17.034Z,18.20
2018-06-19T09:48:51.211Z,18.20
2018-06-19T09:51:25.241Z,18.20
2018-06-19T09:53:59.465Z,18.30
2018-06-19T09:56:33.289Z,18.30
2018-06-19T09:59:07.972Z,18.30
2018-06-19T10:01:41.950Z,18.30
2018-06-19T10:04:16.111Z,18.30
2018-06-19T10:06:50.382Z,18.30
2018-06-19T10:09:24.329Z,18.30
2018-06-19T10:11:58.420Z,18.40
2018-06-19T10:14:32.226Z,18.30
2018-06-19T10:17:06.576Z,18.30
2018-06-19T10:19:40.632Z,18.40
2018-06-19T10:22:14.856Z,18.40
2018-06-19T10:24:48.695Z,18.50
2018-06-19T10:27:22.624Z,18.50
2018-06-19T10:29:56.731Z,18.40
2018-06-19T10:32:30.844Z,18.50
2018-06-19T10:35:05.690Z,18.60
2018-06-19T10:37:40.229Z,18.60
2018-06-19T10:40:14.658Z,18.70
2018-06-19T10:42:48.622Z,18.80
2018-06-19T10:45:22.650Z,18.80
2018-06-19T10:47:56.580Z,18.80
2018-06-19T10:50:30.540Z,18.90
2018-06-19T10:53:04.641Z,18.90
2018-06-19T10:55:38.912Z,19.00
2018-06-19T10:58:13.181Z,19.10
2018-06-19T11:00:53.618Z,19.10
2018-06-19T11:03:27.956Z,19.00
2018-06-19T11:06:02.998Z,19.00
2018-06-19T11:08:37.035Z,19.00
2018-06-19T11:11:11.055Z,19.00
2018-06-19T11:13:45.232Z,19.00
2018-06-19T11:16:19.246Z,19.10
2018-06-19T11:18:53.386Z,19.20
2018-06-19T11:21:27.340Z,19.40
2018-06-19T11:24:01.705Z,19.50
2018-06-19T11:26:35.964Z,19.60
2018-06-19T11:29:10.343Z,19.60
2018-06-19T11:31:44.380Z,19.60
2018-06-19T11:34:18.745Z,19.60
2018-06-19T11:36:52.655Z,19.60
2018-06-19T11:39:26.826Z,19.50
2018-06-19T11:42:01.141Z,19.50
2018-06-19T11:44:35.243Z,19.60
2018-06-19T11:47:09.877Z,19.60
2018-06-19T11:49:43.950Z,19.60
2018-06-19T11:52:18.369Z,19.70
2018-06-19T11:54:52.986Z,19.70
2018-06-19T11:57:27.037Z,19.70
2018-06-19T12:00:00.821Z,19.70
2018-06-19T12:02:34.965Z,19.80
2018-06-19T12:05:08.781Z,19.90
2018-06-19T12:07:44.430Z,19.90
2018-06-19T12:10:18.815Z,19.90
2018-06-19T12:12:53.191Z,19.90
2018-06-19T12:15:27.176Z,19.90
2018-06-19T12:18:01.331Z,20.00
2018-06-19T12:20:35.526Z,20.00
2018-06-19T12:25:43.475Z,20.00
2018-06-19T12:30:52.009Z,20.10
2018-06-19T12:33:26.146Z,20.10
2018-06-19T12:36:00.598Z,20.10
2018-06-19T12:38:34.521Z,20.20
2018-06-19T12:41:08.692Z,20.20
2018-06-19T12:43:42.864Z,20.40
2018-06-19T12:46:16.994Z,20.50
2018-06-19T12:48:51.305Z,20.60
2018-06-19T12:51:48.811Z,20.60
2018-06-19T12:55:35.767Z,20.60
2018-06-19T12:58:09.791Z,20.70
2018-06-19T13:00:43.654Z,20.80
2018-06-19T13:03:28.959Z,20.80
2018-06-19T13:06:14.261Z,20.90
2018-06-19T13:08:48.605Z,21.00
2018-06-19T13:11:22.748Z,21.00
2018-06-19T13:14:08.251Z,21.00
2018-06-19T13:16:53.657Z,21.00
2018-06-19T13:19:39.231Z,21.10
2018-06-19T13:22:13.165Z,21.10
2018-06-19T13:24:47.560Z,21.30
2018-06-19T13:27:22.094Z,21.40
2018-06-19T13:30:08.681Z,21.50
2018-06-19T13:32:42.582Z,21.70
2018-06-19T13:35:17.018Z,21.90
2018-06-19T13:37:51.141Z,22.00
2018-06-19T13:41:02.096Z,22.30
2018-06-19T13:43:47.563Z,22.50
2018-06-19T13:46:21.550Z,22.70
2018-06-19T13:48:55.829Z,22.80
2018-06-19T13:51:30.227Z,22.80
2018-06-19T13:54:04.594Z,22.90
2018-06-19T13:57:06.320Z,22.90
2018-06-19T13:59:41.061Z,23.00
2018-06-19T14:02:15.599Z,23.10
2018-06-19T14:04:49.869Z,23.10
2018-06-19T14:07:25.933Z,23.00
2018-06-19T14:10:20.181Z,22.90
2018-06-19T14:12:58.313Z,23.00
2018-06-19T14:15:41.965Z,22.90
2018-06-19T14:18:17.157Z,22.90
2018-06-19T14:20:51.310Z,22.80
2018-06-19T14:23:25.291Z,22.80
2018-06-19T14:25:59.550Z,22.70
2018-06-19T14:28:33.575Z,22.60
2018-06-19T14:31:07.742Z,22.50
2018-06-19T14:33:42.173Z,22.60
2018-06-19T14:36:16.340Z,22.50
2018-06-19T14:38:50.331Z,22.60
2018-06-19T14:41:24.531Z,22.50
2018-06-19T14:43:58.823Z,22.50
2018-06-19T14:46:33.261Z,22.40
2018-06-19T14:49:08.013Z,22.40
2018-06-19T14:51:42.292Z,22.40
2018-06-19T14:54:16.581Z,22.50
2018-06-19T14:56:50.725Z,22.50
2018-06-19T15:02:02.233Z,22.60
2018-06-19T15:04:36.605Z,22.60
2018-06-19T15:07:10.584Z,22.70
2018-06-19T15:09:44.997Z,22.70
2018-06-19T15:12:19.205Z,22.70
2018-06-19T15:14:53.523Z,22.80
2018-06-19T15:20:01.683Z,23.10
2018-06-19T15:22:36.564Z,23.20
2018-06-19T15:25:11.351Z,23.30
2018-06-19T15:27:45.609Z,23.30
2018-06-19T15:30:19.714Z,23.20
2018-06-19T15:32:54.226Z,23.20
2018-06-19T15:38:02.989Z,23.00
2018-06-19T15:40:37.545Z,22.90
2018-06-19T15:43:11.940Z,22.80
2018-06-19T15:45:46.070Z,22.80
2018-06-19T15:48:20.117Z,22.70
2018-06-19T15:50:54.158Z,22.60
2018-06-19T15:56:04.136Z,22.50
2018-06-19T15:58:38.771Z,22.50
2018-06-19T16:01:12.810Z,22.50
2018-06-19T16:03:47.063Z,22.50
2018-06-19T16:06:21.419Z,22.40
2018-06-19T16:08:55.622Z,22.40
2018-06-19T16:14:04.297Z,22.40
2018-06-19T16:16:38.794Z,22.40
2018-06-19T16:19:12.810Z,22.30
2018-06-19T16:21:47.298Z,22.30
2018-06-19T16:24:21.541Z,22.30
2018-06-19T16:26:55.567Z,22.30
2018-06-19T16:29:30.001Z,22.30
2018-06-19T16:32:04.158Z,22.30
2018-06-19T16:34:38.374Z,22.30
2018-06-19T16:37:12.594Z,22.30
2018-06-19T16:39:46.884Z,22.30
2018-06-19T16:42:21.120Z,22.40
2018-06-19T16:44:55.172Z,22.40
2018-06-19T16:47:30.512Z,22.30
2018-06-19T16:50:04.883Z,22.30
2018-06-19T16:52:39.162Z,22.30
2018-06-19T16:55:13.346Z,22.30
2018-06-19T16:57:47.271Z,22.30
2018-06-19T17:00:21.665Z,22.30
2018-06-19T17:02:56.217Z,22.20
2018-06-19T17:05:30.654Z,22.20
2018-06-19T17:08:05.059Z,22.10
2018-06-19T17:10:39.146Z,22.10
2018-06-19T17:13:14.181Z,22.10
2018-06-19T17:15:48.758Z,22.00
2018-06-19T17:18:23.479Z,22.00
2018-06-19T17:20:57.930Z,22.00
2018-06-19T17:23:33.085Z,21.90
2018-06-19T17:26:07.502Z,21.90
2018-06-19T17:31:15.721Z,21.90
2018-06-19T17:33:49.927Z,21.80
2018-06-19T17:36:24.304Z,21.80
2018-06-19T17:38:58.296Z,21.80
2018-06-19T17:41:32.813Z,21.80
2018-06-19T17:44:07.484Z,21.80
2018-06-19T17:46:41.925Z,21.70
2018-06-19T17:49:15.911Z,21.70
2018-06-19T17:51:50.008Z,21.70
2018-06-19T17:54:24.256Z,21.70
2018-06-19T17:56:58.669Z,21.60
2018-06-19T17:59:32.855Z,21.60
2018-06-19T18:02:07.632Z,21.60
2018-06-19T18:04:42.006Z,21.50
2018-06-19T18:07:16.184Z,21.50
2018-06-19T18:12:24.406Z,21.50
2018-06-19T18:14:59.081Z,21.40
2018-06-19T18:17:33.427Z,21.40
2018-06-19T18:20:07.606Z,21.40
2018-06-19T18:22:41.872Z,21.30
2018-06-19T18:25:16.076Z,21.40
2018-06-19T18:27:50.452Z,21.40
2018-06-19T18:30:24.570Z,21.30
2018-06-19T18:32:58.960Z,21.30
2018-06-19T18:35:33.071Z,21.30
2018-06-19T18:38:07.194Z,21.30
2018-06-19T18:40:41.611Z,21.30
2018-06-19T18:43:16.156Z,21.20
2018-06-19T18:45:50.563Z,21.20
2018-06-19T18:48:24.610Z,21.20
2018-06-19T18:50:58.982Z,21.20
2018-06-19T18:53:33.296Z,21.10
2018-06-19T18:56:07.728Z,21.10
2018-06-19T18:58:41.925Z,21.10
2018-06-19T19:01:16.380Z,21.10
2018-06-19T19:03:50.484Z,21.10
2018-06-19T19:06:24.756Z,21.00
2018-06-19T19:08:59.411Z,21.00
2018-06-19T19:11:33.957Z,21.00
2018-06-19T19:14:08.146Z,21.00
2018-06-19T19:16:48.506Z,21.00
2018-06-19T19:19:24.542Z,20.90
2018-06-19T19:21:59.555Z,20.90
2018-06-19T19:24:34.652Z,20.90
2018-06-19T19:27:14.801Z,20.90
2018-06-19T19:29:50.465Z,20.80
2018-06-19T19:32:25.690Z,20.80
2018-06-19T19:35:00.283Z,20.80
2018-06-19T19:37:40.074Z,20.80
2018-06-19T19:40:20.187Z,20.80
2018-06-19T19:42:54.712Z,20.70
2018-06-19T19:45:29.330Z,20.70
2018-06-19T19:48:09.557Z,20.70
2018-06-19T19:50:43.969Z,20.70
2018-06-19T19:53:18.164Z,20.70
2018-06-19T19:55:58.172Z,20.70
2018-06-19T19:58:37.866Z,20.60
2018-06-19T20:01:13.191Z,20.60
2018-06-19T20:03:48.153Z,20.60
2018-06-19T20:06:23.089Z,20.60
2018-06-19T20:08:57.256Z,20.60
2018-06-19T20:11:31.465Z,20.50
2018-06-19T20:14:06.216Z,20.50
2018-06-19T20:16:40.466Z,20.50
2018-06-19T20:19:14.600Z,20.40
2018-06-19T20:21:48.694Z,20.50
2018-06-19T20:24:23.258Z,20.40
2018-06-19T20:26:57.601Z,20.30
2018-06-19T20:29:32.164Z,20.20
2018-06-19T20:32:06.716Z,20.10
2018-06-19T20:34:41.089Z,20.10
2018-06-19T20:37:15.252Z,20.00
2018-06-19T20:39:49.436Z,19.90
2018-06-19T20:42:23.885Z,19.90
2018-06-19T20:44:58.651Z,19.80
2018-06-19T20:47:32.785Z,19.70
2018-06-19T20:50:07.711Z,19.70
2018-06-19T20:52:42.315Z,19.70
2018-06-19T20:57:50.606Z,19.70
2018-06-19T21:00:25.049Z,19.70
2018-06-19T21:02:59.656Z,19.60
2018-06-19T21:05:33.876Z,19.60
2018-06-19T21:08:08.261Z,19.50
2018-06-19T21:10:42.212Z,19.50
2018-06-19T21:13:16.474Z,19.50
2018-06-19T21:15:50.634Z,19.40
2018-06-19T21:18:24.542Z,19.40
2018-06-19T21:20:59.181Z,19.40
2018-06-19T21:23:33.254Z,19.40
2018-06-19T21:26:07.755Z,19.40
2018-06-19T21:28:41.844Z,19.40
2018-06-19T21:31:15.831Z,19.40
2018-06-19T21:33:50.065Z,19.40
2018-06-19T21:36:24.195Z,19.40
2018-06-19T21:38:58.406Z,19.40
2018-06-19T21:41:32.482Z,19.40
2018-06-19T21:44:06.734Z,19.30
2018-06-19T21:46:40.524Z,19.30
2018-06-19T21:49:14.519Z,19.30
2018-06-19T21:51:48.716Z,19.20
2018-06-19T21:54:22.658Z,19.20
2018-06-19T21:56:56.633Z,19.30
2018-06-19T21:59:30.717Z,19.20
2018-06-19T22:02:04.989Z,19.30
2018-06-19T22:04:39.027Z,19.30
2018-06-19T22:07:13.176Z,19.30
2018-06-19T22:09:47.102Z,19.30
2018-06-19T22:12:21.115Z,19.20
2018-06-19T22:14:55.297Z,19.20
2018-06-19T22:17:29.649Z,19.20
2018-06-19T22:20:03.780Z,19.20
2018-06-19T22:22:37.618Z,19.20
2018-06-19T22:25:11.505Z,19.10
2018-06-19T22:27:45.629Z,19.10
2018-06-19T22:30:19.791Z,19.10
2018-06-19T22:32:53.861Z,19.10
2018-06-19T22:35:27.889Z,19.10
2018-06-19T22:38:01.864Z,19.10
2018-06-19T22:40:35.972Z,19.10
2018-06-19T22:43:10.195Z,19.10
2018-06-19T22:45:44.161Z,19.10
2018-06-19T22:48:18.961Z,19.00
2018-06-19T22:50:53.801Z,19.00
2018-06-19T22:53:28.039Z,18.90
2018-06-19T22:56:02.033Z,18.90
2018-06-19T22:58:36.108Z,18.80
2018-06-19T23:01:10.144Z,18.80
2018-06-19T23:03:44.173Z,18.80
2018-06-19T23:06:18.455Z,18.80
2018-06-19T23:08:52.548Z,18.80
2018-06-19T23:11:26.546Z,18.80
2018-06-19T23:14:01.145Z,18.90
2018-06-19T23:16:35.156Z,18.90
2018-06-19T23:19:09.266Z,18.90
2018-06-19T23:21:43.411Z,18.90
2018-06-19T23:24:17.383Z,18.90
2018-06-19T23:26:51.553Z,19.00
2018-06-19T23:29:25.425Z,18.90
2018-06-19T23:31:59.428Z,18.90
2018-06-19T23:34:33.443Z,18.90
2018-06-19T23:37:07.395Z,18.90
2018-06-19T23:39:41.203Z,18.90
2018-06-19T23:42:15.074Z,18.90
2018-06-19T23:44:49.281Z,18.90
2018-06-19T23:47:23.104Z,18.80
2018-06-19T23:49:57.504Z,18.90
2018-06-19T23:52:31.635Z,18.80
2018-06-19T23:55:07.292Z,18.80
2018-06-19T23:57:42.038Z,18.80
